.
WxDataArchive / Data Records for 2015-07-26
2015-07-25 July 2015 2015-07-27

Data Records for Sunday, 26 July 2015

Time	Temp	Chill	HIndex	Humid	Dewpt	 Wind 	HiWind	WindDir	Rain 	Barom
-----	----	-----	------	-----	-----	------	------	-------	-----	-----
00:00	73.0	73.0	73.0	91	70.2	0	1	270	0.02	29.875 
00:05	72.7	72.7	72.7	92	70.2	0	1	270	0.02	29.875 
00:10	72.5	72.5	72.5	92	70.0	0	1	270	0.00	29.875 
00:15	72.3	72.3	72.3	92	69.8	0	1	270	0.00	29.866 
00:20	72.3	72.3	72.3	92	69.8	0	2	270	0.00	29.866 
00:25	72.1	72.1	72.1	93	70.0	0	1	270	0.00	29.866 
00:30	72.1	72.1	72.1	93	70.0	0	2	270	0.00	29.877 
00:35	72.0	72.0	72.0	93	69.9	0	2	270	0.00	29.877 
00:40	71.8	71.8	71.8	93	69.7	0	2	270	0.00	29.877 
00:45	71.6	71.6	71.6	93	69.5	0	0	---	0.00	29.876 
00:50	71.5	71.5	71.5	93	69.4	0	0	---	0.00	29.876 
00:55	71.3	71.3	71.3	93	69.2	0	1	270	0.00	29.876 
01:00	71.3	71.3	71.3	93	69.2	0	0	---	0.00	29.870 
01:05	71.1	71.1	71.1	94	69.3	0	0	---	0.00	29.870 
01:10	70.9	70.9	70.9	94	69.1	0	0	---	0.00	29.870 
01:15	70.9	70.9	70.9	94	69.1	0	0	---	0.00	29.877 
01:20	70.9	70.9	70.9	94	69.1	0	0	---	0.00	29.877 
01:25	70.8	70.8	70.8	94	69.0	0	0	---	0.00	29.877 
01:30	70.8	70.8	70.8	94	69.0	0	0	---	0.00	29.869 
01:35	70.6	70.6	70.6	94	68.8	0	0	---	0.00	29.869 
01:40	70.6	70.6	70.6	94	68.8	0	0	---	0.00	29.869 
01:45	70.6	70.6	70.6	94	68.8	0	0	---	0.00	29.864 
01:50	70.4	70.4	70.4	94	68.6	0	0	---	0.00	29.864 
01:55	70.6	70.6	70.6	94	68.8	0	0	---	0.00	29.864 
02:00	70.6	70.6	70.6	95	69.1	0	0	---	0.00	29.865 
02:05	70.6	70.6	70.6	95	69.1	0	0	---	0.00	29.865 
02:10	70.6	70.6	70.6	95	69.1	0	0	---	0.00	29.865 
02:15	70.6	70.6	70.6	95	69.1	0	0	---	0.00	29.864 
02:20	70.6	70.6	70.6	95	69.1	0	0	---	0.00	29.864 
02:25	70.6	70.6	70.6	95	69.1	0	0	---	0.00	29.864 
02:30	70.6	70.6	70.6	95	69.1	0	0	---	0.00	29.871 
02:35	70.4	70.4	70.4	95	68.9	0	0	---	0.00	29.871 
02:40	70.3	70.3	70.3	95	68.8	0	0	---	0.00	29.871 
02:45	70.3	70.3	70.3	95	68.8	0	0	---	0.00	29.871 
02:50	70.3	70.3	70.3	95	68.8	0	0	---	0.00	29.871 
02:55	70.1	70.1	70.1	95	68.6	0	0	---	0.00	29.871 
03:00	69.9	69.9	69.9	95	68.4	0	0	---	0.00	29.876 
03:05	69.8	69.8	69.8	95	68.3	0	0	---	0.00	29.876 
03:10	69.8	69.8	69.8	95	68.3	0	0	---	0.00	29.876 
03:15	69.6	69.6	69.6	95	68.1	0	0	---	0.00	29.870 
03:20	69.6	69.6	69.6	95	68.1	0	0	---	0.00	29.870 
03:25	69.4	69.4	69.4	95	67.9	0	0	---	0.00	29.870 
03:30	69.4	69.4	69.4	95	67.9	0	0	---	0.00	29.866 
03:35	69.4	69.4	69.4	96	68.2	0	0	---	0.00	29.866 
03:40	69.4	69.4	69.4	96	68.2	0	0	---	0.00	29.866 
03:45	69.4	69.4	69.4	96	68.2	0	0	---	0.00	29.867 
03:50	69.4	69.4	69.4	96	68.2	0	0	---	0.00	29.867 
03:55	69.4	69.4	69.4	96	68.2	0	0	---	0.00	29.867 
04:00	69.4	69.4	69.4	96	68.2	0	0	---	0.00	29.866 
04:05	69.3	69.3	69.3	96	68.1	0	0	---	0.00	29.866 
04:10	69.1	69.1	69.1	96	67.9	0	0	---	0.00	29.866 
04:15	69.1	69.1	69.1	96	67.9	0	0	---	0.00	29.867 
04:20	68.9	68.9	68.9	96	67.7	0	0	---	0.00	29.867 
04:25	68.8	68.8	68.8	96	67.6	0	0	---	0.00	29.867 
04:30	68.8	68.8	68.8	96	67.6	0	0	---	0.00	29.864 
04:35	68.6	68.6	68.6	96	67.4	0	0	---	0.00	29.864 
04:40	68.6	68.6	68.6	96	67.4	0	0	---	0.00	29.864 
04:45	68.4	68.4	68.4	96	67.2	0	0	---	0.00	29.865 
04:50	68.3	68.3	68.3	96	67.1	0	0	---	0.00	29.865 
04:55	68.1	68.1	68.1	96	66.9	0	0	---	0.00	29.865 
05:00	68.1	68.1	68.1	96	66.9	0	0	---	0.00	29.866 
05:05	67.9	67.9	67.9	96	66.7	0	0	---	0.00	29.866 
05:10	67.8	67.8	67.8	96	66.6	0	0	---	0.00	29.866 
05:15	67.6	67.6	67.6	96	66.4	0	0	---	0.00	29.869 
05:20	67.6	67.6	67.6	96	66.4	0	0	---	0.00	29.869 
05:25	67.4	67.4	67.4	96	66.2	0	0	---	0.00	29.869 
05:30	67.3	67.3	67.3	96	66.1	0	0	---	0.00	29.874 
05:35	67.3	67.3	67.3	96	66.1	0	0	---	0.00	29.874 
05:40	67.3	67.3	67.3	96	66.1	0	0	---	0.00	29.874 
05:45	67.1	67.1	67.1	96	65.9	0	0	---	0.00	29.867 
05:50	66.9	66.9	66.9	96	65.7	0	0	---	0.00	29.867 
05:55	66.9	66.9	66.9	96	65.7	0	0	---	0.00	29.867 
06:00	66.8	66.8	66.8	96	65.6	0	0	---	0.00	29.868 
06:05	66.6	66.6	66.6	96	65.4	0	0	---	0.00	29.868 
06:10	66.6	66.6	66.6	96	65.4	0	0	---	0.00	29.868 
06:15	66.6	66.6	66.6	96	65.4	0	0	---	0.00	29.870 
06:20	66.8	66.8	66.8	96	65.6	0	0	---	0.00	29.870 
06:25	66.8	66.8	66.8	96	65.6	0	0	---	0.00	29.870 
06:30	66.8	66.8	66.8	96	65.6	0	0	---	0.00	29.874 
06:35	66.8	66.8	66.8	96	65.6	0	0	---	0.00	29.874 
06:40	66.6	66.6	66.6	96	65.4	0	0	---	0.00	29.874 
06:45	66.6	66.6	66.6	96	65.4	0	0	---	0.00	29.879 
06:50	66.8	66.8	66.8	96	65.6	0	0	---	0.00	29.879 
06:55	67.1	67.1	67.1	96	65.9	0	0	---	0.00	29.879 
07:00	67.3	67.3	67.3	96	66.1	0	0	---	0.00	29.883 
07:05	67.4	67.4	67.4	96	66.2	0	0	---	0.00	29.883 
07:10	67.6	67.6	67.6	96	66.4	0	0	---	0.00	29.883 
07:15	67.8	67.8	67.8	96	66.6	0	0	---	0.00	29.885 
07:20	67.8	67.8	67.8	96	66.6	0	0	---	0.00	29.885 
07:25	67.9	67.9	67.9	96	66.7	0	0	---	0.00	29.885 
07:30	68.1	68.1	68.1	96	66.9	0	0	---	0.00	29.892 
07:35	68.3	68.3	68.3	96	67.1	0	0	---	0.00	29.892 
07:40	68.4	68.4	68.4	96	67.2	0	0	---	0.00	29.892 
07:45	68.6	68.6	68.6	96	67.4	0	0	---	0.00	29.895 
07:50	68.9	68.9	68.9	96	67.7	0	0	---	0.00	29.895 
07:55	69.1	69.1	69.1	96	67.9	0	1	270	0.00	29.895 
08:00	69.3	69.3	69.3	96	68.1	0	0	---	0.00	29.895 
08:05	69.8	69.8	69.8	96	68.6	0	0	---	0.00	29.895 
08:10	69.9	69.9	69.9	96	68.7	0	0	---	0.00	29.895 
08:15	70.3	70.3	70.3	96	69.1	0	2	270	0.00	29.897 
08:20	70.3	70.3	70.3	96	69.1	0	1	270	0.00	29.897 
08:25	70.4	70.4	70.4	96	69.2	0	2	270	0.00	29.897 
08:30	70.9	70.9	70.9	96	69.7	0	3	270	0.00	29.897 
08:35	71.3	71.3	71.3	96	70.1	0	0	---	0.00	29.897 
08:40	71.5	71.5	71.5	96	70.3	0	1	270	0.00	29.897 
08:45	71.8	71.8	71.8	96	70.6	0	1	270	0.00	29.898 
08:50	72.1	72.1	72.1	96	70.9	0	2	270	0.00	29.898 
08:55	72.5	72.5	72.5	96	71.3	0	1	270	0.00	29.898 
09:00	72.7	72.7	72.7	96	71.5	0	3	270	0.00	29.908 
09:05	73.2	73.2	73.2	96	72.0	1	2	270	0.00	29.908 
09:10	73.5	73.5	73.5	95	72.0	0	2	270	0.00	29.908 
09:15	73.7	73.7	73.7	95	72.2	0	3	270	0.00	29.909 
09:20	74.0	74.0	74.0	95	72.5	0	2	270	0.00	29.909 
09:25	74.4	74.4	74.4	94	72.6	0	2	270	0.00	29.909 
09:30	74.6	74.6	74.6	93	72.4	0	3	270	0.00	29.908 
09:35	74.7	74.7	74.7	92	72.2	0	2	270	0.00	29.908 
09:40	75.3	75.3	74.5	91	72.5	1	3	270	0.00	29.908 
09:45	75.3	75.3	74.7	90	72.2	1	3	270	0.00	29.906 
09:50	75.6	75.6	75.4	89	72.1	0	2	270	0.00	29.906 
09:55	75.6	75.6	75.8	86	71.1	1	4	270	0.00	29.906 
10:00	76.0	76.0	76.6	85	71.2	1	3	270	0.00	29.906 
10:05	76.0	76.0	76.7	84	70.8	1	4	270	0.00	29.906 
10:10	76.1	76.1	76.7	85	71.2	0	1	270	0.00	29.906 
10:15	76.3	76.3	77.2	84	71.1	0	2	270	0.00	29.906 
10:20	76.7	76.7	77.9	84	71.5	1	4	270	0.00	29.906 
10:25	77.7	77.7	79.8	82	71.8	0	2	270	0.00	29.906 
10:30	78.1	78.1	80.5	81	71.8	1	3	270	0.00	29.909 
10:35	78.5	78.5	81.2	79	71.4	0	2	270	0.00	29.909 
10:40	78.8	78.8	81.7	78	71.3	1	3	270	0.00	29.909 
10:45	79.0	79.0	82.0	78	71.5	1	3	270	0.00	29.901 
10:50	79.4	79.4	82.7	77	71.5	0	2	270	0.00	29.901 
10:55	79.8	79.8	83.4	77	71.9	0	2	270	0.00	29.901 
11:00	79.9	79.9	83.5	76	71.6	1	4	270	0.00	29.903 
11:05	79.9	79.9	83.5	76	71.6	0	1	270	0.00	29.903 
11:10	79.8	79.8	83.3	76	71.5	1	5	270	0.00	29.903 
11:15	80.3	80.3	84.1	75	71.6	1	4	270	0.00	29.907 
11:20	80.7	80.7	84.6	73	71.2	2	5	112	0.00	29.907 
11:25	81.2	81.2	85.3	72	71.3	1	4	112	0.00	29.907 
11:30	81.6	81.6	86.1	72	71.7	0	1	112	0.00	29.911 
11:35	81.4	81.4	85.9	73	71.9	0	2	112	0.00	29.911 
11:40	81.1	81.1	85.2	72	71.2	0	3	112	0.00	29.911 
11:45	81.1	81.1	85.3	73	71.6	0	2	112	0.00	29.917 
11:50	81.4	81.4	85.7	72	71.5	0	2	112	0.00	29.917 
11:55	82.0	82.0	86.4	70	71.2	0	3	112	0.00	29.917 
12:00	82.0	82.0	86.2	69	70.8	2	4	112	0.00	29.925 
12:05	82.2	82.2	86.8	70	71.4	1	3	112	0.00	29.925 
12:10	82.0	82.0	86.2	69	70.8	0	2	112	0.00	29.925 
12:15	81.8	81.8	86.1	70	71.0	0	1	112	0.00	29.931 
12:20	81.6	81.6	85.9	71	71.3	0	1	112	0.00	29.931 
12:25	82.0	82.0	86.2	69	70.8	1	5	112	0.00	29.931 
12:30	82.2	82.2	86.6	69	71.0	0	1	112	0.00	29.935 
12:35	82.0	82.0	86.2	69	70.8	0	1	112	0.00	29.935 
12:40	81.8	81.8	85.9	69	70.6	0	3	112	0.00	29.935 
12:45	82.0	82.0	86.0	68	70.4	1	3	112	0.00	29.935 
12:50	82.4	82.4	86.5	67	70.3	1	3	112	0.00	29.935 
12:55	83.2	83.2	88.0	67	71.1	0	1	112	0.00	29.935 
13:00	83.6	83.6	88.7	67	71.5	0	1	112	0.00	29.929 
13:05	83.4	83.4	88.1	66	70.8	0	2	112	0.00	29.929 
13:10	83.6	83.6	88.2	65	70.6	0	2	112	0.00	29.929 
13:15	84.0	84.0	89.2	66	71.4	0	3	112	0.00	29.924 
13:20	84.3	84.3	89.5	65	71.2	1	5	112	0.00	29.924 
13:25	84.1	84.1	88.0	61	69.2	2	4	112	0.00	29.924 
13:30	84.1	84.1	88.2	62	69.6	1	4	112	0.00	29.918 
13:35	84.3	84.3	88.6	62	69.8	1	5	112	0.00	29.918 
13:40	84.3	84.3	88.9	63	70.3	0	1	112	0.00	29.918 
13:45	84.1	84.1	88.8	64	70.6	0	2	112	0.00	29.917 
13:50	84.0	84.0	88.6	64	70.5	1	4	112	0.00	29.917 
13:55	83.6	83.6	88.2	65	70.6	1	3	112	0.00	29.917 
14:00	83.6	83.6	87.6	63	69.6	0	1	112	0.00	29.912 
14:05	84.0	84.0	88.9	65	70.9	1	4	112	0.00	29.912 
14:10	84.3	84.3	88.6	62	69.8	0	2	112	0.00	29.912 
14:15	84.5	84.5	89.0	62	70.0	0	2	112	0.00	29.912 
14:20	84.3	84.3	88.3	61	69.4	1	4	112	0.00	29.912 
14:25	83.8	83.8	87.7	62	69.4	2	5	112	0.00	29.912 
14:30	83.8	83.8	88.0	63	69.8	0	2	112	0.00	29.912 
14:35	84.0	84.0	88.4	63	70.0	1	4	112	0.00	29.912 
14:40	84.1	84.1	88.2	62	69.6	0	3	112	0.00	29.912 
14:45	84.0	84.0	88.6	64	70.5	1	3	112	0.00	29.909 
14:50	84.0	84.0	88.6	64	70.5	0	2	68	0.00	29.909 
14:55	83.8	83.8	88.0	63	69.8	1	3	68	0.00	29.909 
15:00	83.8	83.8	88.0	63	69.8	0	2	68	0.00	29.909 
15:05	83.6	83.6	87.9	64	70.1	1	4	68	0.00	29.909 
15:10	83.4	83.4	87.3	63	69.5	1	3	68	0.00	29.909 
15:15	83.6	83.6	87.9	64	70.1	0	2	68	0.00	29.911 
15:20	83.6	83.6	88.2	65	70.6	1	4	90	0.00	29.911 
15:25	83.6	83.6	87.6	63	69.6	0	2	90	0.00	29.911 
15:30	83.8	83.8	88.3	64	70.3	0	1	90	0.00	29.906 
15:35	83.8	83.8	88.6	65	70.7	1	3	90	0.00	29.906 
15:40	83.6	83.6	88.2	65	70.6	1	2	90	0.00	29.906 
15:45	83.4	83.4	87.6	64	69.9	1	3	90	0.00	29.910 
15:50	83.2	83.2	87.2	64	69.7	1	3	90	0.00	29.910 
15:55	83.2	83.2	87.5	65	70.2	0	1	90	0.00	29.910 
16:00	83.4	83.4	87.6	64	69.9	1	3	90	0.00	29.903 
16:05	83.4	83.4	87.8	65	70.4	1	3	90	0.00	29.903 
16:10	83.4	83.4	87.6	64	69.9	1	2	90	0.00	29.903 
16:15	83.4	83.4	87.3	63	69.5	1	3	90	0.00	29.897 
16:20	83.4	83.4	87.6	64	69.9	0	3	90	0.00	29.897 
16:25	83.4	83.4	87.0	62	69.0	1	5	90	0.00	29.897 
16:30	83.6	83.6	87.6	63	69.6	1	4	90	0.00	29.896 
16:35	83.8	83.8	88.3	64	70.3	0	2	90	0.00	29.896 
16:40	83.8	83.8	87.7	62	69.4	1	3	90	0.00	29.896 
16:45	83.6	83.6	87.6	63	69.6	1	4	90	0.00	29.895 
16:50	83.6	83.6	87.6	63	69.6	0	1	90	0.00	29.895 
16:55	83.4	83.4	86.8	61	68.5	0	2	90	0.00	29.895 
17:00	83.2	83.2	86.7	62	68.8	0	1	90	0.00	29.898 
17:05	83.4	83.4	87.0	62	69.0	0	3	90	0.00	29.898 
17:10	83.4	83.4	86.8	61	68.5	0	3	90	0.00	29.898 
17:15	83.4	83.4	86.8	61	68.5	0	2	90	0.00	29.901 
17:20	83.4	83.4	86.3	59	67.5	1	3	90	0.00	29.901 
17:25	83.8	83.8	86.7	58	67.4	1	3	90	0.00	29.901 
17:30	84.0	84.0	87.0	58	67.6	1	4	90	0.00	29.904 
17:35	84.0	84.0	87.0	58	67.6	1	4	90	0.00	29.904 
17:40	83.8	83.8	86.4	57	66.9	1	3	90	0.00	29.904 
17:45	84.0	84.0	86.7	57	67.1	1	3	90	0.00	29.906 
17:50	84.1	84.1	86.7	56	66.7	1	3	90	0.00	29.906 
17:55	84.1	84.1	86.7	56	66.7	1	3	90	0.00	29.906 
18:00	84.1	84.1	86.7	56	66.7	1	7	90	0.00	29.909 
18:05	84.0	84.0	86.0	54	65.5	1	7	112	0.00	29.909 
18:10	84.0	84.0	86.0	54	65.5	1	3	112	0.00	29.909 
18:15	83.8	83.8	86.0	55	65.9	2	4	112	0.00	29.901 
18:20	83.4	83.4	85.4	55	65.5	1	4	90	0.00	29.901 
18:25	83.2	83.2	84.9	54	64.8	1	3	90	0.00	29.901 
18:30	83.4	83.4	86.3	59	67.5	1	5	90	0.00	29.899 
18:35	83.4	83.4	87.3	63	69.5	1	4	90	0.00	29.899 
18:40	83.2	83.2	86.9	63	69.3	1	5	112	0.00	29.899 
18:45	82.8	82.8	86.5	64	69.3	2	6	90	0.00	29.897 
18:50	82.6	82.6	86.2	64	69.2	0	2	90	0.00	29.897 
18:55	82.2	82.2	85.7	65	69.2	0	4	90	0.00	29.897 
19:00	81.8	81.8	85.1	65	68.9	0	3	90	0.00	29.900 
19:05	81.4	81.4	84.4	65	68.5	1	3	90	0.00	29.900 
19:10	81.2	81.2	84.1	65	68.3	1	2	90	0.00	29.900 
19:15	81.1	81.1	84.1	66	68.6	1	3	90	0.00	29.897 
19:20	80.9	80.9	83.7	65	68.0	2	5	90	0.00	29.897 
19:25	80.7	80.7	83.4	65	67.8	2	5	90	0.00	29.897 
19:30	80.7	80.7	83.5	66	68.3	0	2	90	0.00	29.900 
19:35	80.5	80.5	83.1	65	67.6	1	3	90	0.00	29.900 
19:40	80.3	80.3	82.9	66	67.9	1	2	90	0.00	29.900 
19:45	79.9	79.9	82.3	66	67.5	1	3	90	0.00	29.900 
19:50	79.9	79.9	82.2	65	67.1	1	3	90	0.00	29.900 
19:55	79.8	79.8	82.2	66	67.4	0	1	90	0.00	29.900 
20:00	79.6	79.6	81.9	66	67.2	1	4	90	0.00	29.899 
20:05	79.4	79.4	81.6	66	67.0	1	3	90	0.00	29.899 
20:10	79.2	79.2	81.4	66	66.8	1	4	90	0.00	29.899 
20:15	79.0	79.0	81.2	67	67.1	1	2	90	0.00	29.895 
20:20	78.8	78.8	81.0	68	67.3	1	3	90	0.00	29.895 
20:25	78.6	78.6	80.8	69	67.6	0	2	90	0.00	29.895 
20:30	78.5	78.5	80.6	68	67.0	1	3	90	0.00	29.897 
20:35	78.3	78.3	80.3	67	66.4	0	2	90	0.00	29.897 
20:40	78.1	78.1	80.0	65	65.4	1	3	90	0.00	29.897 
20:45	78.1	78.1	80.0	65	65.4	1	5	90	0.00	29.898 
20:50	77.9	77.9	79.7	63	64.3	1	5	90	0.00	29.898 
20:55	77.9	77.9	79.7	64	64.7	0	2	90	0.00	29.898 
21:00	77.7	77.7	79.5	64	64.5	0	1	90	0.00	29.900 
21:05	77.6	77.6	79.4	64	64.4	0	3	90	0.00	29.900 
21:10	77.4	77.4	79.2	64	64.2	0	1	90	0.00	29.900 
21:15	77.4	77.4	79.2	64	64.2	0	1	90	0.00	29.903 
21:20	77.2	77.2	79.0	65	64.5	0	1	90	0.00	29.903 
21:25	77.2	77.2	79.0	65	64.5	0	1	90	0.00	29.903 
21:30	77.2	77.2	79.0	65	64.5	0	1	90	0.00	29.903 
21:35	77.0	77.0	78.8	66	64.8	0	1	90	0.00	29.903 
21:40	76.8	76.8	78.6	66	64.6	0	1	90	0.00	29.903 
21:45	76.7	76.7	78.5	67	64.9	0	1	90	0.00	29.898 
21:50	76.5	76.5	78.3	67	64.7	0	1	90	0.00	29.898 
21:55	76.3	76.3	78.0	68	64.9	0	1	90	0.00	29.898 
22:00	76.3	76.3	78.0	68	64.9	0	1	90	0.00	29.900 
22:05	76.1	76.1	77.8	68	64.8	0	1	90	0.00	29.900 
22:10	76.0	76.0	77.7	69	65.1	0	0	---	0.00	29.900 
22:15	76.0	76.0	77.7	70	65.5	0	0	---	0.00	29.909 
22:20	75.8	75.8	77.4	70	65.3	0	1	90	0.00	29.909 
22:25	75.6	75.6	77.2	70	65.1	0	1	90	0.00	29.909 
22:30	75.4	75.4	77.1	70	64.9	0	2	90	0.00	29.909 
22:35	75.4	75.4	77.1	69	64.5	0	2	90	0.00	29.909 
22:40	75.4	75.4	77.1	69	64.5	0	1	90	0.00	29.909 
22:45	75.4	75.4	77.1	69	64.5	0	1	90	0.00	29.919 
22:50	75.3	75.3	77.1	68	64.0	0	1	90	0.00	29.919 
22:55	75.3	75.3	77.1	68	64.0	0	1	90	0.00	29.919 
23:00	75.1	75.1	76.9	68	63.8	0	2	90	0.00	29.921 
23:05	75.1	75.1	76.9	68	63.8	0	2	90	0.00	29.921 
23:10	74.7	74.7	74.7	68	63.4	0	1	90	0.00	29.921 
23:15	74.6	74.6	74.6	69	63.7	0	2	90	0.00	29.921 
23:20	74.6	74.6	74.6	69	63.7	0	1	90	0.00	29.921 
23:25	74.4	74.4	74.4	69	63.5	0	1	90	0.00	29.921 
23:30	74.2	74.2	74.2	68	62.9	0	1	90	0.00	29.925 
23:35	74.2	74.2	74.2	69	63.4	0	1	90	0.00	29.925 
23:40	74.0	74.0	74.0	69	63.2	0	1	90	0.00	29.925 
23:45	74.0	74.0	74.0	69	63.2	0	1	90	0.00	29.927 
23:50	74.0	74.0	74.0	69	63.2	0	1	90	0.00	29.927 
23:55	73.9	73.9	73.9	69	63.1	0	1	90	0.00	29.927 

CoCoRaHS
IN-AL-39
A2 Web Hosting
Creative Commons License
GoDaddy
search engine by freefind advanced

loaded 2018-11-15 18:30:46 • last modified 2010-11-18 10:43:29
Privacy PolicyDisclaimer
• wx.awcolley.com is powered by PmWiki v.2002016 •
• all content (unless otherwise noted) © 2018 A W Colley